VYMD

Mandalay International Airport

Airport
ICAO code
VYMD
IATA Code
MDL
Summary
ICAO Region
APAC
ICAO Territory
Location

Tada-U, Mandalay Region

Serving
Mandalay
Elevation
299 ft
Coordinates
21° 56' 27" N , 96° 5' 24" E
KCC
Metar
Observation
VYMD 280630Z 34002KT 6000 NSC 30/12 Q1010 NOSIG
Station
MANDALAY
Date/Time
2023-01-28 06:30:00
Wind direction
340°
Wind speed
02 kts
Lowest cloud amount
nil significant cloud
Temperature
30°C
Dew point
12°C
Humidity
33%
QNH
1010 hPa
Weather condition
n/a

Mandalay International Airport, located 35 km south of Mandalay in Tada-U, Myanmar.

Climatology

Tropical Savanna climate (Köppen climate classification Aw)

Airport map

Aerial View

SKYbrary Partners:

Safety knowledge contributed by: